Time;durP1;ratioP1;P1;durP2;ratioP2;P2;SDS_P1;SDS_P2;PMS_P1;PMS_P2;Temp;Humidity;BMP_temperature;BMP_pressure;BME280_temperature;BME280_humidity;BME280_pressure;Samples;Min_cycle;Max_cycle;Signal;HPM_P1;HPM_P2
2023/07/05 00:01:31;;;;;;;10.23;7.40;;;;;;;26.36;75.56;99650.66;5038794;28;20045;-65
2023/07/05 00:03:57;;;;;;;10.15;8.10;;;;;;;26.41;74.93;99650.66;5039127;28;20029;-65
2023/07/05 00:06:22;;;;;;;11.07;7.63;;;;;;;26.32;75.26;99653.09;5038570;28;20279;-66
2023/07/05 00:08:48;;;;;;;10.85;8.23;;;;;;;26.30;75.61;99652.50;5020237;28;20144;-65
2023/07/05 00:11:13;;;;;;;11.35;7.70;;;;;;;26.25;76.20;99644.34;5023402;28;20112;-65
2023/07/05 00:13:39;;;;;;;10.23;8.07;;;;;;;26.26;76.54;99648.69;5018962;28;20033;-64
2023/07/05 00:16:06;;;;;;;12.85;8.20;;;;;;;26.21;76.54;99648.69;5023000;28;20227;-65
2023/07/05 00:18:31;;;;;;;12.70;8.35;;;;;;;26.26;76.39;99647.88;5022466;28;20034;-64
2023/07/05 00:21:04;;;;;;;10.35;7.45;;;;;;;26.18;76.72;99642.97;5019989;28;20347;-65
2023/07/05 00:23:32;;;;;;;12.63;8.48;;;;;;;26.16;76.86;99648.66;5033353;28;20033;-64
2023/07/05 00:25:57;;;;;;;9.90;7.57;;;;;;;26.12;77.00;99647.56;5038674;28;20061;-66
2023/07/05 00:28:23;;;;;;;11.13;8.38;;;;;;;26.13;77.08;99643.78;5022404;28;20048;-64
2023/07/05 00:30:49;;;;;;;11.80;7.63;;;;;;;26.09;77.22;99640.78;5023936;28;20051;-66
2023/07/05 00:33:14;;;;;;;10.05;8.00;;;;;;;26.08;77.44;99638.31;5019266;28;20041;-64
2023/07/05 00:35:50;;;;;;;11.25;8.05;;;;;;;26.05;77.73;99641.56;5018692;28;20366;-64
2023/07/05 00:38:17;;;;;;;10.02;7.88;;;;;;;26.03;77.54;99639.13;5020267;28;20096;-65
2023/07/05 00:40:42;;;;;;;10.07;8.15;;;;;;;25.95;77.82;99642.31;5019675;28;20033;-65
2023/07/05 00:43:09;;;;;;;11.13;8.35;;;;;;;25.79;78.88;99640.63;5019985;28;20045;-65
2023/07/05 00:45:51;;;;;;;10.80;8.35;;;;;;;25.75;79.01;99637.63;5018632;28;20038;-65
2023/07/05 00:48:24;;;;;;;11.75;8.85;;;;;;;25.74;78.98;99637.88;5019376;28;20057;-64
2023/07/05 00:50:54;;;;;;;10.20;8.65;;;;;;;25.74;79.04;99635.16;5017995;28;20087;-65
2023/07/05 00:53:20;;;;;;;11.00;9.18;;;;;;;25.74;79.02;99625.13;5016315;28;20077;-65
2023/07/05 00:55:54;;;;;;;10.32;8.65;;;;;;;25.77;78.67;99624.63;5017141;28;20052;-65
2023/07/05 00:58:21;;;;;;;9.38;8.13;;;;;;;25.86;78.03;99630.34;5018207;28;20033;-66
2023/07/05 01:00:48;;;;;;;11.63;8.50;;;;;;;25.90;77.86;99611.66;5018463;28;20038;-64
2023/07/05 01:03:16;;;;;;;13.27;8.35;;;;;;;25.92;78.06;99615.72;4999234;28;20052;-65
2023/07/05 01:05:42;;;;;;;10.02;7.88;;;;;;;25.94;77.79;99624.41;5017008;28;20694;-65
2023/07/05 01:08:07;;;;;;;10.27;8.43;;;;;;;25.95;77.52;99611.66;5018335;28;20038;-65
2023/07/05 01:10:34;;;;;;;11.18;7.85;;;;;;;25.98;77.86;99617.38;5018628;28;20034;-64
2023/07/05 01:13:19;;;;;;;11.70;7.97;;;;;;;25.96;77.77;99605.16;5017886;28;20037;-64
2023/07/05 01:15:59;;;;;;;9.93;7.80;;;;;;;26.06;77.15;99613.34;5017960;28;20279;-65
2023/07/05 01:18:42;;;;;;;13.00;9.23;;;;;;;26.02;77.29;99610.38;5018850;28;20042;-65
2023/07/05 01:21:25;;;;;;;;;;;;;;;26.01;77.18;99611.44;5016946;28;20216;-65
2023/07/05 01:23:59;;;;;;;10.45;8.15;;;;;;;25.92;77.64;99607.59;5017226;28;19932;-66
2023/07/05 01:26:55;;;;;;;10.10;7.82;;;;;;;25.98;77.86;99616.56;5036441;28;20040;-65
2023/07/05 01:29:39;;;;;;;10.40;7.85;;;;;;;25.93;77.86;99611.09;5030425;28;20049;-65
2023/07/05 01:32:27;;;;;;;11.63;8.13;;;;;;;25.91;77.96;99607.84;5018633;28;20048;-65
2023/07/05 01:34:59;;;;;;;10.90;9.02;;;;;;;25.84;77.96;99613.53;5018756;28;20088;-65
2023/07/05 01:37:42;;;;;;;11.00;8.27;;;;;;;25.78;78.78;99609.16;5019921;28;20026;-65
2023/07/05 01:40:25;;;;;;;10.30;8.98;;;;;;;25.78;78.84;99606.44;5018032;28;20041;-65
2023/07/05 01:42:53;;;;;;;;;;;;;;;25.76;79.04;99597.75;5019310;28;20097;-64
2023/07/05 01:45:25;;;;;;;9.90;8.23;;;;;;;25.77;78.77;99600.19;5018940;28;19932;-65
2023/07/05 01:48:10;;;;;;;11.23;8.43;;;;;;;25.79;78.77;99610.78;5017165;28;20042;-65
2023/07/05 01:50:43;;;;;;;10.63;8.45;;;;;;;25.73;79.53;99612.66;5018282;28;20283;-65
2023/07/05 01:53:16;;;;;;;10.73;8.43;;;;;;;25.74;79.85;99614.28;5017908;28;20056;-65
2023/07/05 01:55:52;;;;;;;11.50;8.75;;;;;;;25.76;79.25;99605.91;5018171;28;20064;-64
2023/07/05 01:58:22;;;;;;;11.35;8.05;;;;;;;25.81;78.86;99611.34;5022220;28;20045;-65
2023/07/05 02:00:50;;;;;;;11.40;9.00;;;;;;;25.84;78.25;99616.22;5024374;28;20358;-65
2023/07/05 02:03:22;;;;;;;9.45;7.75;;;;;;;25.82;78.62;99606.72;5025405;28;20037;-66
2023/07/05 02:05:48;;;;;;;9.10;8.07;;;;;;;25.78;78.31;99606.44;5022056;28;20065;-65
2023/07/05 02:08:15;;;;;;;11.15;8.52;;;;;;;25.78;78.64;99617.28;5024306;28;20050;-64
2023/07/05 02:10:41;;;;;;;12.07;9.50;;;;;;;25.70;78.40;99621.31;5028678;28;20034;-66
2023/07/05 02:13:08;;;;;;;10.35;8.18;;;;;;;25.67;79.66;99621.03;5023946;28;20331;-65
2023/07/05 02:15:35;;;;;;;9.90;8.10;;;;;;;25.68;79.75;99628.91;5024462;28;20053;-65
2023/07/05 02:18:01;;;;;;;11.13;8.18;;;;;;;25.65;80.02;99634.84;5024284;28;20069;-65
2023/07/05 02:20:27;;;;;;;12.32;9.15;;;;;;;25.63;80.02;99625.31;5023088;28;20238;-64
2023/07/05 02:22:53;;;;;;;8.68;7.70;;;;;;;25.63;79.01;99625.31;5024405;28;20113;-66
2023/07/05 02:25:19;;;;;;;11.48;8.23;;;;;;;25.62;79.64;99621.81;5023952;28;20046;-65
2023/07/05 02:27:45;;;;;;;12.65;8.77;;;;;;;25.61;80.12;99632.91;5024045;28;20026;-65
2023/07/05 02:30:12;;;;;;;11.40;8.55;;;;;;;25.54;79.20;99635.03;5024759;28;20424;-64
2023/07/05 02:32:39;;;;;;;10.23;8.55;;;;;;;25.51;79.78;99639.09;5023741;28;20249;-65
2023/07/05 02:35:04;;;;;;;11.70;8.88;;;;;;;25.50;80.19;99639.34;5024216;28;20353;-65
2023/07/05 02:37:34;;;;;;;10.95;8.93;;;;;;;25.45;80.07;99638.25;5023911;28;20041;-65
2023/07/05 02:40:00;;;;;;;12.77;9.13;;;;;;;25.49;80.44;99641.25;5024739;28;20041;-65
2023/07/05 02:42:26;;;;;;;11.43;8.23;;;;;;;25.53;81.09;99646.97;5023179;28;20048;-65
2023/07/05 02:44:51;;;;;;;11.10;8.50;;;;;;;25.52;80.81;99637.19;5024377;28;20038;-66
2023/07/05 02:47:18;;;;;;;10.15;8.27;;;;;;;25.53;80.97;99638.81;5022040;28;20037;-65
2023/07/05 02:49:44;;;;;;;10.85;8.75;;;;;;;25.46;81.34;99641.78;5021976;28;20042;-65
2023/07/05 02:52:10;;;;;;;11.50;9.10;;;;;;;25.48;81.63;99644.22;5028075;28;20060;-65
2023/07/05 02:54:35;;;;;;;11.88;8.07;;;;;;;25.46;80.48;99645.31;5023334;28;20346;-65
2023/07/05 02:57:01;;;;;;;14.30;9.68;;;;;;;25.45;81.40;99646.38;5024105;28;20235;-65
2023/07/05 02:59:27;;;;;;;11.30;9.50;;;;;;;25.43;82.26;99647.72;5023519;28;20034;-65
2023/07/05 03:01:52;;;;;;;10.85;8.48;;;;;;;25.45;82.07;99646.38;5023927;28;20038;-65
2023/07/05 03:04:18;;;;;;;11.88;9.02;;;;;;;25.44;81.52;99641.22;5024086;28;20048;-65
2023/07/05 03:06:43;;;;;;;12.57;9.25;;;;;;;25.46;81.80;99634.44;5023519;28;20045;-64
2023/07/05 03:09:09;;;;;;;13.18;9.25;;;;;;;25.50;82.08;99633.94;5022600;28;20078;-64
2023/07/05 03:11:34;;;;;;;10.70;9.23;;;;;;;25.53;82.02;99627.97;5020692;28;20037;-64
2023/07/05 03:13:59;;;;;;;13.30;8.80;;;;;;;25.49;81.56;99637.72;5021565;28;20038;-66
2023/07/05 03:16:25;;;;;;;13.10;9.30;;;;;;;25.46;81.43;99633.63;5019714;28;20341;-65
2023/07/05 03:18:50;;;;;;;10.25;8.93;;;;;;;25.46;81.55;99626.31;5020767;28;20567;-65
2023/07/05 03:21:16;;;;;;;10.57;9.48;;;;;;;25.46;82.06;99620.91;5019765;28;20033;-64
2023/07/05 03:23:41;;;;;;;14.82;10.02;;;;;;;25.47;81.78;99619.00;5019960;28;20042;-65
2023/07/05 03:26:09;;;;;;;14.43;10.15;;;;;;;25.47;81.65;99610.88;5020465;28;20032;-64
2023/07/05 03:28:36;;;;;;;14.52;10.73;;;;;;;25.44;82.58;99611.41;5019959;28;20030;-65
2023/07/05 03:31:05;;;;;;;11.57;9.40;;;;;;;25.41;82.79;99607.31;5020751;28;20060;-65
2023/07/05 03:33:32;;;;;;;12.50;9.52;;;;;;;25.42;82.66;99611.66;5020653;28;20088;-65
2023/07/05 03:36:05;;;;;;;11.73;9.90;;;;;;;25.44;82.73;99614.94;5020036;28;20216;-65
2023/07/05 03:38:32;;;;;;;13.52;9.48;;;;;;;25.49;82.75;99614.13;5020202;28;20042;-65
2023/07/05 03:41:11;;;;;;;12.60;9.90;;;;;;;25.54;82.74;99616.88;5019832;28;20035;-65
2023/07/05 03:43:37;;;;;;;13.77;10.55;;;;;;;25.50;82.58;99625.78;5021350;28;20061;-65
2023/07/05 03:46:05;;;;;;;14.77;10.10;;;;;;;25.45;83.41;99632.81;5020543;28;20021;-65
2023/07/05 03:48:34;;;;;;;12.93;10.18;;;;;;;25.44;83.58;99627.66;5019587;28;20030;-65
2023/07/05 03:50:59;;;;;;;14.38;10.05;;;;;;;25.45;83.56;99626.59;5018351;28;20071;-64
2023/07/05 03:53:25;;;;;;;13.52;10.18;;;;;;;25.44;83.55;99623.06;5018805;28;20077;-65
2023/07/05 03:55:51;;;;;;;13.55;10.57;;;;;;;25.48;84.31;99633.38;5020012;28;20049;-65
2023/07/05 03:58:17;;;;;;;14.55;11.02;;;;;;;25.44;84.73;99635.78;5018281;28;20060;-65
2023/07/05 04:00:43;;;;;;;14.90;11.48;;;;;;;25.43;85.41;99634.97;5017993;28;20323;-65
2023/07/05 04:03:08;;;;;;;15.07;11.02;;;;;;;25.44;85.24;99635.78;5018586;28;20321;-66
2023/07/05 04:05:34;;;;;;;14.45;11.07;;;;;;;25.43;85.83;99632.28;5018902;28;20041;-65
2023/07/05 04:08:00;;;;;;;14.05;10.88;;;;;;;25.57;85.31;99631.81;5020633;28;20045;-64
2023/07/05 04:10:26;;;;;;;13.85;10.60;;;;;;;25.58;85.54;99634.25;5019709;28;20278;-65
2023/07/05 04:12:51;;;;;;;13.45;11.05;;;;;;;25.57;86.27;99624.47;5020131;28;20259;-64
2023/07/05 04:15:17;;;;;;;17.98;11.68;;;;;;;25.50;86.73;99629.31;5020604;28;20058;-64
2023/07/05 04:17:42;;;;;;;15.40;10.82;;;;;;;25.61;86.78;99627.47;5017618;28;20310;-66
2023/07/05 04:20:08;;;;;;;15.80;10.80;;;;;;;25.74;85.96;99635.16;5017947;28;20314;-64
2023/07/05 04:22:35;;;;;;;16.25;10.48;;;;;;;25.89;85.28;99637.13;5018367;28;20040;-66
2023/07/05 04:25:01;;;;;;;14.77;11.18;;;;;;;25.93;84.74;99625.50;5019105;28;20110;-65
2023/07/05 04:27:27;;;;;;;14.60;11.35;;;;;;;26.02;84.62;99620.41;5019832;28;20034;-64
2023/07/05 04:29:52;;;;;;;15.88;11.52;;;;;;;26.14;82.74;99629.13;5019392;28;20041;-64
2023/07/05 04:32:17;;;;;;;13.40;10.45;;;;;;;26.06;82.47;99633.16;5019021;28;20044;-64
2023/07/05 04:34:43;;;;;;;13.45;10.98;;;;;;;26.13;83.38;99630.19;5019006;28;20042;-64
2023/07/05 04:37:08;;;;;;;12.68;9.98;;;;;;;26.02;83.62;99628.53;5018244;28;20212;-64
2023/07/05 04:39:35;;;;;;;12.60;10.30;;;;;;;26.13;83.87;99623.97;5018735;28;20263;-64
2023/07/05 04:42:00;;;;;;;13.27;11.10;;;;;;;26.03;84.79;99620.13;5019437;28;20092;-63
2023/07/05 04:44:26;;;;;;;17.90;11.25;;;;;;;26.09;84.19;99623.69;5019586;28;20041;-63
2023/07/05 04:46:51;;;;;;;14.50;11.45;;;;;;;26.07;84.97;99615.81;5017201;28;20034;-64
2023/07/05 04:49:16;;;;;;;15.90;11.95;;;;;;;25.84;87.71;99616.22;5016522;28;20331;-64
2023/07/05 04:51:42;;;;;;;15.25;11.13;;;;;;;25.87;87.83;99623.03;5019366;28;20263;-65
2023/07/05 04:54:07;;;;;;;13.57;10.40;;;;;;;25.74;87.07;99619.72;5019185;28;20335;-65
2023/07/05 04:56:33;;;;;;;13.68;11.05;;;;;;;25.60;88.39;99623.13;5018210;28;20083;-64
2023/07/05 04:58:58;;;;;;;15.90;10.55;;;;;;;25.60;88.84;99615.00;5018439;28;20036;-65
2023/07/05 05:01:25;;;;;;;12.15;10.18;;;;;;;25.37;90.86;99622.47;5018543;28;20030;-63
2023/07/05 05:03:50;;;;;;;14.00;10.02;;;;;;;25.16;92.74;99619.88;5017972;28;20041;-63
2023/07/05 05:06:17;;;;;;;14.13;10.02;;;;;;;25.59;91.40;99616.91;5019431;28;20050;-63
2023/07/05 05:08:42;;;;;;;11.07;9.88;;;;;;;25.84;91.67;99615.41;5021765;28;20045;-64
2023/07/05 05:11:08;;;;;;;14.30;11.30;;;;;;;25.78;89.52;99623.53;5018120;28;20034;-64
2023/07/05 05:13:35;;;;;;;13.80;11.10;;;;;;;25.84;90.07;99610.81;5017784;28;20049;-64
2023/07/05 05:16:01;;;;;;;14.55;11.18;;;;;;;25.88;89.68;99611.09;5019304;28;20091;-64
2023/07/05 05:18:29;;;;;;;15.52;11.23;;;;;;;25.90;90.83;99612.47;5017910;28;20069;-64
2023/07/05 05:20:55;;;;;;;15.30;10.90;;;;;;;26.13;90.89;99613.09;5017518;28;20041;-65
2023/07/05 05:23:20;;;;;;;11.65;10.23;;;;;;;26.66;87.86;99609.97;5018315;28;20087;-63
2023/07/05 05:25:47;;;;;;;12.85;9.68;;;;;;;26.79;86.54;99616.75;5017512;28;20064;-64
2023/07/05 05:28:14;;;;;;;9.15;7.22;;;;;;;26.89;82.82;99622.19;5016738;28;20054;-64
2023/07/05 05:30:41;;;;;;;10.80;8.40;;;;;;;26.98;82.82;99617.88;5018706;28;20026;-65
2023/07/05 05:33:06;;;;;;;8.15;6.95;;;;;;;26.90;82.66;99614.84;5017588;28;20045;-64
2023/07/05 05:35:34;;;;;;;13.93;8.65;;;;;;;26.91;81.63;99614.59;5018589;28;20040;-65
2023/07/05 05:38:00;;;;;;;10.77;8.20;;;;;;;26.87;82.68;99618.13;5017765;28;20235;-65
2023/07/05 05:40:26;;;;;;;9.05;8.13;;;;;;;27.09;82.19;99617.91;5018846;28;21079;-65
2023/07/05 05:42:51;;;;;;;10.07;8.05;;;;;;;27.19;78.68;99613.25;5018801;28;20079;-64
2023/07/05 05:45:17;;;;;;;10.18;8.18;;;;;;;27.47;78.83;99611.84;5017972;28;20045;-64
2023/07/05 05:47:43;;;;;;;11.32;8.65;;;;;;;27.53;79.77;99605.31;5017342;28;20045;-64
2023/07/05 05:50:09;;;;;;;9.27;8.38;;;;;;;27.70;78.31;99607.72;5018319;28;20105;-64
2023/07/05 05:52:35;;;;;;;8.80;7.88;;;;;;;28.00;76.15;99598.59;5027054;28;20343;-64
2023/07/05 05:55:01;;;;;;;10.23;8.40;;;;;;;28.20;78.07;99608.59;5018172;28;20106;-64
2023/07/05 05:57:27;;;;;;;11.35;8.90;;;;;;;27.95;78.79;99610.34;5018336;28;20040;-65
2023/07/05 05:59:52;;;;;;;11.45;9.18;;;;;;;28.14;75.90;99604.28;5019294;28;20344;-64
2023/07/05 06:02:19;;;;;;;11.38;9.20;;;;;;;28.01;76.30;99611.13;5019014;28;20057;-65
2023/07/05 06:04:44;;;;;;;13.20;9.13;;;;;;;28.20;75.75;99609.41;5017934;28;20401;-66
2023/07/05 06:07:09;;;;;;;10.48;9.27;;;;;;;28.29;73.99;99618.66;5018087;28;20041;-66
2023/07/05 06:09:46;;;;;;;15.95;8.95;;;;;;;28.23;75.68;99614.31;5019801;28;20046;-65
2023/07/05 06:12:12;;;;;;;10.23;8.65;;;;;;;28.50;73.04;99613.06;5018718;28;20073;-66
2023/07/05 06:14:38;;;;;;;11.20;8.65;;;;;;;28.40;74.72;99610.41;5018614;28;20357;-66
2023/07/05 06:17:03;;;;;;;11.90;9.10;;;;;;;28.78;71.29;99615.03;5019264;28;20030;-65
2023/07/05 06:19:29;;;;;;;12.65;9.30;;;;;;;28.96;69.79;99604.56;5015742;28;20201;-66
2023/07/05 06:21:54;;;;;;;11.57;9.73;;;;;;;29.09;68.51;99599.25;5015045;28;20037;-65
2023/07/05 06:24:20;;;;;;;10.35;8.23;;;;;;;28.79;71.03;99603.03;5017860;28;20042;-66
2023/07/05 06:26:45;;;;;;;11.65;8.13;;;;;;;28.77;71.32;99598.97;5018314;28;20048;-66
2023/07/05 06:29:10;;;;;;;10.40;9.20;;;;;;;29.03;71.66;99603.13;5017620;28;20040;-66
2023/07/05 06:31:36;;;;;;;12.65;9.40;;;;;;;29.44;65.80;99594.59;5018123;28;20049;-64
2023/07/05 06:34:01;;;;;;;10.13;9.02;;;;;;;29.31;67.34;99597.97;5017276;28;20081;-64
2023/07/05 06:36:27;;;;;;;11.30;9.48;;;;;;;29.38;66.84;99593.81;5017007;28;20335;-64
2023/07/05 06:38:53;;;;;;;12.48;9.30;;;;;;;29.73;64.68;99594.53;5018878;28;20041;-65
2023/07/05 06:41:18;;;;;;;13.13;10.43;;;;;;;29.95;62.20;99589.31;5018245;28;20029;-66
2023/07/05 06:43:44;;;;;;;11.93;10.07;;;;;;;29.98;62.56;99585.19;5017343;28;20038;-66
2023/07/05 06:46:10;;;;;;;11.40;10.18;;;;;;;30.27;61.14;99588.66;5022162;28;20223;-66
2023/07/05 06:48:35;;;;;;;13.10;10.25;;;;;;;30.58;60.95;99583.53;5019893;28;20049;-65
2023/07/05 06:51:01;;;;;;;12.73;10.32;;;;;;;30.38;60.54;99584.66;5022376;28;20030;-65
2023/07/05 06:53:27;;;;;;;12.38;10.18;;;;;;;29.90;62.19;99588.56;5020563;28;20065;-65
2023/07/05 06:55:52;;;;;;;11.95;10.48;;;;;;;30.34;60.76;99580.91;5021005;28;20261;-66
2023/07/05 06:58:19;;;;;;;11.25;10.15;;;;;;;30.32;60.23;99585.03;5021322;28;20216;-66
2023/07/05 07:00:49;;;;;;;12.00;10.40;;;;;;;30.55;59.79;99586.06;5020621;28;20246;-64
2023/07/05 07:03:16;;;;;;;11.48;10.15;;;;;;;30.56;59.31;99582.22;5021597;28;20052;-66
2023/07/05 07:05:50;;;;;;;15.75;10.90;;;;;;;30.78;58.84;99580.50;5038417;28;20083;-66
2023/07/05 07:08:15;;;;;;;14.13;11.18;;;;;;;31.03;57.96;99583.91;5038790;28;20078;-65
2023/07/05 07:10:41;;;;;;;12.00;10.38;;;;;;;31.37;57.44;99589.06;5019939;28;20231;-62
2023/07/05 07:13:06;;;;;;;12.88;11.30;;;;;;;31.59;55.70;99586.44;5020671;28;20042;-63
2023/07/05 07:15:32;;;;;;;12.77;10.88;;;;;;;31.81;55.92;99585.75;5021197;28;20050;-63
2023/07/05 07:17:57;;;;;;;14.10;11.18;;;;;;;32.11;54.73;99580.72;5018325;28;20068;-63
2023/07/05 07:20:25;;;;;;;12.93;10.18;;;;;;;32.29;54.61;99575.13;5018360;28;20255;-64
2023/07/05 07:22:51;;;;;;;12.70;10.35;;;;;;;32.35;51.94;99579.38;5020368;28;20037;-64
2023/07/05 07:25:16;;;;;;;11.07;9.75;;;;;;;32.67;52.63;99577.50;5021573;28;20266;-64
2023/07/05 07:27:42;;;;;;;13.15;10.45;;;;;;;32.67;53.45;99580.25;5020072;28;20033;-63
2023/07/05 07:30:08;;;;;;;11.32;10.18;;;;;;;32.77;51.83;99569.06;5021048;28;20040;-64
2023/07/05 07:32:33;;;;;;;12.35;11.02;;;;;;;32.80;51.05;99562.94;5021128;28;20235;-63
2023/07/05 07:34:59;;;;;;;14.80;12.23;;;;;;;32.86;51.13;99569.13;5021661;28;20042;-63
2023/07/05 07:37:24;;;;;;;13.82;10.30;;;;;;;32.90;51.11;99575.59;5021437;28;20040;-63
2023/07/05 07:39:50;;;;;;;13.65;10.85;;;;;;;32.88;50.18;99567.69;5021167;28;20037;-64
2023/07/05 07:42:15;;;;;;;13.13;11.13;;;;;;;33.03;50.25;99571.13;5019630;28;20036;-63
2023/07/05 07:44:41;;;;;;;12.68;10.95;;;;;;;33.08;50.12;99569.06;5020882;28;20041;-64
2023/07/05 07:47:06;;;;;;;12.68;11.10;;;;;;;33.22;51.16;99572.53;5020011;28;20033;-63
2023/07/05 07:49:33;;;;;;;13.57;12.13;;;;;;;32.99;49.90;99566.28;5020462;28;20418;-63
2023/07/05 07:51:59;;;;;;;14.80;11.73;;;;;;;32.97;50.57;99562.25;5018821;28;20033;-63
2023/07/05 07:54:30;;;;;;;13.13;11.50;;;;;;;33.17;48.36;99564.44;5019683;28;20045;-64
2023/07/05 07:56:56;;;;;;;14.13;11.00;;;;;;;33.21;49.11;99568.16;5019760;28;20060;-64
2023/07/05 07:59:23;;;;;;;12.32;11.07;;;;;;;33.15;48.39;99566.69;5019790;28;20041;-64
2023/07/05 08:01:49;;;;;;;12.60;11.30;;;;;;;33.12;48.74;99570.06;5000316;28;20539;-64
2023/07/05 08:04:15;;;;;;;15.32;11.48;;;;;;;33.38;48.31;99569.41;5018269;28;20080;-63
2023/07/05 08:06:42;;;;;;;11.52;10.30;;;;;;;33.57;48.21;99572.72;5019132;28;20117;-64
2023/07/05 08:09:14;;;;;;;13.00;11.70;;;;;;;33.71;47.06;99559.66;5019478;28;20037;-63
2023/07/05 08:11:40;;;;;;;12.27;10.87;;;;;;;33.83;46.55;99567.31;5019392;28;20030;-64
2023/07/05 08:14:07;;;;;;;12.10;10.77;;;;;;;33.74;46.77;99560.97;5018901;28;20072;-63
2023/07/05 08:16:32;;;;;;;11.73;10.50;;;;;;;33.74;45.68;99560.97;5018572;28;20313;-63
2023/07/05 08:18:58;;;;;;;13.48;11.18;;;;;;;33.79;45.29;99560.81;5019904;28;20476;-63
2023/07/05 08:21:24;;;;;;;13.65;11.82;;;;;;;33.85;44.50;99565.88;5019300;28;20033;-64
2023/07/05 08:23:49;;;;;;;13.52;10.50;;;;;;;33.92;45.12;99557.97;5018702;28;20049;-64
2023/07/05 08:26:15;;;;;;;13.10;11.18;;;;;;;34.15;44.69;99550.38;5019014;28;20117;-64
2023/07/05 08:28:42;;;;;;;12.68;10.85;;;;;;;34.33;45.53;99556.72;5018685;28;20060;-63
2023/07/05 08:31:08;;;;;;;15.98;12.07;;;;;;;34.39;46.04;99554.63;5019446;28;20041;-63
2023/07/05 08:33:36;;;;;;;14.38;11.85;;;;;;;34.36;44.61;99547.03;5019076;28;20037;-64
2023/07/05 08:36:13;;;;;;;11.98;10.70;;;;;;;34.47;45.24;99545.56;5019635;28;20333;-65
2023/07/05 08:38:42;;;;;;;12.18;10.85;;;;;;;34.37;43.88;99554.16;5018478;28;20069;-65
2023/07/05 08:41:24;;;;;;;13.13;11.32;;;;;;;34.46;43.25;99550.25;5020090;28;20044;-64
2023/07/05 08:44:22;;;;;;;12.77;10.48;;;;;;;34.35;43.26;99545.41;5019634;28;20076;-64
2023/07/05 08:47:05;;;;;;;11.52;10.32;;;;;;;34.22;43.94;99534.22;4992339;28;20239;-66
2023/07/05 08:49:51;;;;;;;11.43;10.23;;;;;;;34.25;43.73;99527.25;5016710;28;20323;-65
2023/07/05 08:52:43;;;;;;;10.18;9.05;;;;;;;34.20;41.73;99536.47;4979704;28;20092;-65
2023/07/05 08:55:23;;;;;;;10.30;9.32;;;;;;;33.84;42.50;99539.53;5017695;28;20453;-64
2023/07/05 08:57:53;;;;;;;11.25;10.07;;;;;;;33.73;43.71;99540.94;5017975;28;20331;-64
2023/07/05 09:00:28;;;;;;;11.25;10.15;;;;;;;33.64;44.42;99532.69;5019456;28;20251;-65
2023/07/05 09:02:54;;;;;;;11.55;10.20;;;;;;;33.83;45.02;99528.88;5018685;28;20287;-64
2023/07/05 09:05:43;;;;;;;11.43;10.15;;;;;;;34.14;44.13;99526.78;5018626;28;20084;-65
2023/07/05 09:08:20;;;;;;;11.75;9.85;;;;;;;33.52;45.22;99529.75;5017131;28;20048;-65
2023/07/05 09:11:04;;;;;;;13.63;11.07;;;;;;;33.46;46.04;99525.53;5017092;28;20322;-66
2023/07/05 09:13:41;;;;;;;11.02;9.43;;;;;;;33.56;43.71;99519.75;5000501;28;20083;-66
2023/07/05 09:16:54;;;;;;;10.50;9.45;;;;;;;33.53;44.65;99517.63;5019033;28;20030;-64
2023/07/05 09:19:41;;;;;;;12.27;9.93;;;;;;;33.61;44.18;99516.84;4947694;28;20050;-64
2023/07/05 09:22:12;;;;;;;12.13;10.02;;;;;;;33.51;43.85;99508.91;5017631;28;20065;-66
2023/07/05 09:24:41;;;;;;;12.15;9.77;;;;;;;33.12;46.82;99501.47;5016258;28;20038;-64
2023/07/05 09:27:24;;;;;;;11.80;10.10;;;;;;;33.36;45.94;99505.81;5017486;28;20323;-64
2023/07/05 09:30:02;;;;;;;12.68;10.15;;;;;;;32.80;47.41;99507.31;5018800;28;20228;-64
2023/07/05 09:32:35;;;;;;;10.98;9.80;;;;;;;32.72;48.60;99499.81;5017948;28;20159;-64
2023/07/05 09:35:01;;;;;;;11.98;10.77;;;;;;;32.57;48.33;99490.88;5017195;28;20053;-66
2023/07/05 09:37:31;;;;;;;12.27;9.90;;;;;;;32.75;47.04;99483.53;5018663;28;20036;-65
2023/07/05 09:39:56;;;;;;;12.20;9.77;;;;;;;32.74;46.49;99481.91;5022210;28;20226;-66
2023/07/05 09:42:55;;;;;;;11.57;9.98;;;;;;;32.70;46.56;99468.03;5018285;28;20053;-64
2023/07/05 09:45:21;;;;;;;12.02;10.38;;;;;;;32.00;50.80;99467.84;5013599;28;20057;-64
2023/07/05 09:47:50;;;;;;;11.48;10.32;;;;;;;31.99;50.42;99461.56;5017906;28;20033;-65
2023/07/05 09:50:19;;;;;;;10.15;9.15;;;;;;;31.94;49.46;99466.34;5018297;28;20034;-65
2023/07/05 09:52:51;;;;;;;9.73;8.73;;;;;;;31.99;48.03;99461.56;5017023;28;20040;-64
2023/07/05 09:55:19;;;;;;;10.48;9.38;;;;;;;32.08;47.70;99447.94;5018966;28;20255;-64
2023/07/05 09:57:45;;;;;;;8.65;7.63;;;;;;;31.69;49.03;99464.97;5017459;28;20263;-65
2023/07/05 10:00:23;;;;;;;10.75;8.95;;;;;;;31.69;50.79;99457.59;5017300;28;20065;-65
2023/07/05 10:02:51;;;;;;;8.63;7.78;;;;;;;31.65;48.91;99461.22;5019222;28;20041;-65
2023/07/05 10:05:25;;;;;;;10.93;8.55;;;;;;;31.70;51.12;99467.44;5018695;28;20072;-65
2023/07/05 10:07:56;;;;;;;7.68;6.88;;;;;;;31.49;49.70;99462.69;5017590;28;20030;-64
2023/07/05 10:10:27;;;;;;;9.68;8.68;;;;;;;31.48;49.62;99472.81;5018646;28;20304;-65
2023/07/05 10:13:19;;;;;;;9.00;7.45;;;;;;;31.55;49.58;99469.66;5017083;28;20640;-65
2023/07/05 10:15:48;;;;;;;10.73;8.13;;;;;;;31.42;53.11;99458.44;5018679;28;20038;-65
2023/07/05 10:18:46;;;;;;;8.48;7.30;;;;;;;31.21;52.74;99467.34;5023277;28;20041;-65
2023/07/05 10:21:19;;;;;;;8.43;7.53;;;;;;;31.23;51.26;99471.44;4986927;28;20659;-65
2023/07/05 10:23:47;;;;;;;8.40;7.30;;;;;;;31.24;50.02;99467.59;5020942;28;20065;-65
2023/07/05 10:26:13;;;;;;;8.45;6.45;;;;;;;31.29;50.64;99464.75;5022654;28;20034;-64
2023/07/05 10:28:42;;;;;;;7.85;6.70;;;;;;;31.25;47.12;99462.91;5022009;28;20227;-63
2023/07/05 10:31:30;;;;;;;8.05;7.25;;;;;;;31.13;47.78;99458.72;5021581;28;20045;-63
2023/07/05 10:34:16;;;;;;;10.48;7.10;;;;;;;31.17;48.51;99449.94;5019281;28;20077;-64
2023/07/05 10:36:46;;;;;;;7.80;7.00;;;;;;;31.08;47.98;99438.88;5019889;28;20033;-66
2023/07/05 10:39:11;;;;;;;8.18;6.90;;;;;;;31.14;49.54;99437.66;5022187;28;20034;-66
2023/07/05 10:41:40;;;;;;;8.52;7.63;;;;;;;31.06;49.35;99427.44;5021997;28;20312;-66
2023/07/05 10:44:19;;;;;;;8.18;7.35;;;;;;;31.13;51.08;99414.16;5021986;28;20361;-65
2023/07/05 10:46:46;;;;;;;9.27;7.90;;;;;;;31.19;50.81;99418.44;5021457;28;20311;-66
2023/07/05 10:49:17;;;;;;;9.68;7.55;;;;;;;31.02;50.60;99418.22;5020687;28;20046;-66
2023/07/05 10:52:03;;;;;;;8.93;7.13;;;;;;;31.07;49.67;99421.66;5020640;28;20366;-65
2023/07/05 10:55:00;;;;;;;8.60;7.60;;;;;;;31.19;50.89;99415.69;5021444;28;20041;-65
2023/07/05 10:57:34;;;;;;;9.60;7.45;;;;;;;31.41;49.65;99412.25;5020974;28;20093;-64
2023/07/05 11:00:15;;;;;;;9.60;7.10;;;;;;;31.35;49.52;99422.47;5020790;28;20041;-65
2023/07/05 11:02:48;;;;;;;9.82;8.35;;;;;;;31.37;47.84;99422.97;5019842;28;20040;-66
2023/07/05 11:05:25;;;;;;;9.32;8.18;;;;;;;31.68;49.12;99414.91;5021914;28;20401;-66
2023/07/05 11:07:55;;;;;;;10.35;7.78;;;;;;;31.88;49.07;99419.09;5021043;28;20041;-66
2023/07/05 11:10:21;;;;;;;9.95;7.72;;;;;;;31.78;47.25;99413.06;5021418;28;20251;-64
2023/07/05 11:12:48;;;;;;;9.05;7.60;;;;;;;31.71;47.98;99417.03;5021030;28;20065;-65
2023/07/05 11:15:16;;;;;;;8.10;7.30;;;;;;;31.66;46.98;99419.88;5020134;28;20049;-64
2023/07/05 11:17:43;;;;;;;8.70;7.80;;;;;;;31.62;47.51;99421.59;5018878;28;20038;-64
2023/07/05 11:20:33;;;;;;;9.80;7.72;;;;;;;31.72;48.87;99420.59;5018493;28;20355;-64
2023/07/05 11:22:59;;;;;;;8.80;7.82;;;;;;;31.74;47.87;99415.63;5018976;28;20037;-66
2023/07/05 11:25:53;;;;;;;9.90;8.02;;;;;;;31.82;47.89;99423.09;5020532;28;20123;-64
2023/07/05 11:28:39;;;;;;;8.90;8.00;;;;;;;31.99;47.84;99416.94;5020194;28;20042;-64
2023/07/05 11:31:08;;;;;;;7.82;7.13;;;;;;;32.11;46.38;99424.59;5019856;28;20065;-65
2023/07/05 11:33:35;;;;;;;8.20;7.40;;;;;;;32.20;48.01;99419.97;5019559;28;20064;-64
2023/07/05 11:36:24;;;;;;;7.57;6.88;;;;;;;31.97;45.44;99417.25;5019541;28;20057;-65